sensor_id;sensor_type;location;lat;lon;timestamp;pressure;altitude;pressure_sealevel;temperature;humidity
31717;BME280;18301;51.076;17.046;2024-02-26T00:00:56;99107.25;;;5.92;84.90
31717;BME280;18301;51.076;17.046;2024-02-26T00:05:57;99099.53;;;5.87;85.41
31717;BME280;18301;51.076;17.046;2024-02-26T00:10:59;99098.91;;;5.84;85.51
31717;BME280;18301;51.076;17.046;2024-02-26T00:16:01;99092.09;;;5.80;85.65
31717;BME280;18301;51.076;17.046;2024-02-26T00:21:03;99093.94;;;5.79;86.08
31717;BME280;18301;51.076;17.046;2024-02-26T00:26:05;99088.66;;;5.77;85.89
31717;BME280;18301;51.076;17.046;2024-02-26T00:31:07;99090.09;;;5.70;85.38
31717;BME280;18301;51.076;17.046;2024-02-26T00:36:09;99091.28;;;5.66;85.83
31717;BME280;18301;51.076;17.046;2024-02-26T00:41:11;99080.19;;;5.60;85.88
31717;BME280;18301;51.076;17.046;2024-02-26T00:46:13;99084.16;;;5.54;86.05
31717;BME280;18301;51.076;17.046;2024-02-26T00:51:15;99076.38;;;5.51;86.19
31717;BME280;18301;51.076;17.046;2024-02-26T00:56:17;99089.88;;;5.49;86.45
31717;BME280;18301;51.076;17.046;2024-02-26T01:01:19;99083.59;;;5.38;86.95
31717;BME280;18301;51.076;17.046;2024-02-26T01:06:21;99076.56;;;5.37;87.46
31717;BME280;18301;51.076;17.046;2024-02-26T01:11:24;99086.50;;;5.35;87.69
31717;BME280;18301;51.076;17.046;2024-02-26T01:16:26;99076.25;;;5.28;88.02
31717;BME280;18301;51.076;17.046;2024-02-26T01:21:30;99072.09;;;5.24;88.27
31717;BME280;18301;51.076;17.046;2024-02-26T01:26:32;99057.25;;;5.20;88.20
31717;BME280;18301;51.076;17.046;2024-02-26T01:31:34;99062.84;;;5.17;88.74
31717;BME280;18301;51.076;17.046;2024-02-26T01:36:35;99063.91;;;5.15;88.51
31717;BME280;18301;51.076;17.046;2024-02-26T01:41:37;99058.88;;;5.10;88.80
31717;BME280;18301;51.076;17.046;2024-02-26T01:46:39;99054.94;;;5.03;89.20
31717;BME280;18301;51.076;17.046;2024-02-26T01:51:42;99060.91;;;5.06;89.34
31717;BME280;18301;51.076;17.046;2024-02-26T01:56:44;99059.63;;;5.12;88.68
31717;BME280;18301;51.076;17.046;2024-02-26T02:01:48;99055.88;;;5.15;88.61
31717;BME280;18301;51.076;17.046;2024-02-26T02:06:53;99045.91;;;5.17;88.57
31717;BME280;18301;51.076;17.046;2024-02-26T02:11:56;99037.38;;;5.12;88.80
31717;BME280;18301;51.076;17.046;2024-02-26T02:16:58;99050.22;;;5.06;89.42
31717;BME280;18301;51.076;17.046;2024-02-26T02:22:00;99046.94;;;5.03;89.01
31717;BME280;18301;51.076;17.046;2024-02-26T02:27:02;99044.25;;;5.03;89.17
31717;BME280;18301;51.076;17.046;2024-02-26T02:32:04;99050.03;;;4.97;89.15
31717;BME280;18301;51.076;17.046;2024-02-26T02:37:06;99046.84;;;4.92;89.58
31717;BME280;18301;51.076;17.046;2024-02-26T02:42:08;99044.78;;;4.95;90.03
31717;BME280;18301;51.076;17.046;2024-02-26T02:47:10;99040.25;;;4.84;89.80
31717;BME280;18301;51.076;17.046;2024-02-26T02:52:11;99043.56;;;4.75;90.17
31717;BME280;18301;51.076;17.046;2024-02-26T02:57:13;99041.13;;;4.72;90.54
31717;BME280;18301;51.076;17.046;2024-02-26T03:02:15;99038.66;;;4.69;90.87
31717;BME280;18301;51.076;17.046;2024-02-26T03:07:16;99046.69;;;4.69;91.04
31717;BME280;18301;51.076;17.046;2024-02-26T03:12:18;99041.97;;;4.73;91.73
31717;BME280;18301;51.076;17.046;2024-02-26T03:17:20;99042.81;;;4.73;91.72
31717;BME280;18301;51.076;17.046;2024-02-26T03:22:22;99044.97;;;4.68;91.81
31717;BME280;18301;51.076;17.046;2024-02-26T03:27:24;99045.72;;;4.57;92.06
31717;BME280;18301;51.076;17.046;2024-02-26T03:32:25;99041.88;;;4.61;91.62
31717;BME280;18301;51.076;17.046;2024-02-26T03:37:27;99040.06;;;4.62;91.98
31717;BME280;18301;51.076;17.046;2024-02-26T03:42:29;99042.22;;;4.57;92.30
31717;BME280;18301;51.076;17.046;2024-02-26T03:47:31;99036.09;;;4.55;91.98
31717;BME280;18301;51.076;17.046;2024-02-26T03:52:33;99043.28;;;4.54;91.66
31717;BME280;18301;51.076;17.046;2024-02-26T03:57:36;99036.09;;;4.55;91.54
31717;BME280;18301;51.076;17.046;2024-02-26T04:02:37;99040.50;;;4.56;90.84
31717;BME280;18301;51.076;17.046;2024-02-26T04:07:40;99032.59;;;4.54;91.21
31717;BME280;18301;51.076;17.046;2024-02-26T04:12:42;99033.66;;;4.52;90.03
31717;BME280;18301;51.076;17.046;2024-02-26T04:17:45;99028.88;;;4.44;90.39
31717;BME280;18301;51.076;17.046;2024-02-26T04:22:47;99038.38;;;4.35;91.06
31717;BME280;18301;51.076;17.046;2024-02-26T04:27:49;99033.78;;;4.37;91.05
31717;BME280;18301;51.076;17.046;2024-02-26T04:32:50;99036.56;;;4.36;90.59
31717;BME280;18301;51.076;17.046;2024-02-26T04:37:52;99039.22;;;4.36;91.03
31717;BME280;18301;51.076;17.046;2024-02-26T04:42:54;99047.56;;;4.31;91.54
31717;BME280;18301;51.076;17.046;2024-02-26T04:47:56;99060.72;;;4.34;92.85
31717;BME280;18301;51.076;17.046;2024-02-26T04:52:57;99058.03;;;4.34;92.66
31717;BME280;18301;51.076;17.046;2024-02-26T04:57:59;99057.16;;;4.34;92.05
31717;BME280;18301;51.076;17.046;2024-02-26T05:03:01;99049.28;;;4.32;91.46
31717;BME280;18301;51.076;17.046;2024-02-26T05:08:03;99049.69;;;4.39;91.46
31717;BME280;18301;51.076;17.046;2024-02-26T05:13:05;99052.06;;;4.44;91.66
31717;BME280;18301;51.076;17.046;2024-02-26T05:18:07;99050.31;;;4.43;91.54
31717;BME280;18301;51.076;17.046;2024-02-26T05:23:09;99049.91;;;4.49;90.69
31717;BME280;18301;51.076;17.046;2024-02-26T05:28:11;99047.22;;;4.49;90.48
31717;BME280;18301;51.076;17.046;2024-02-26T05:33:13;99046.28;;;4.50;90.82
31717;BME280;18301;51.076;17.046;2024-02-26T05:38:18;99055.47;;;4.46;91.03
31717;BME280;18301;51.076;17.046;2024-02-26T05:43:20;99050.88;;;4.48;91.10
31717;BME280;18301;51.076;17.046;2024-02-26T05:48:22;99060.50;;;4.50;91.19
31717;BME280;18301;51.076;17.046;2024-02-26T05:53:24;99066.56;;;4.52;90.89
31717;BME280;18301;51.076;17.046;2024-02-26T05:58:26;99071.06;;;4.52;90.65
31717;BME280;18301;51.076;17.046;2024-02-26T06:03:27;99073.72;;;4.52;91.21
31717;BME280;18301;51.076;17.046;2024-02-26T06:08:29;99077.69;;;4.59;90.52
31717;BME280;18301;51.076;17.046;2024-02-26T06:13:31;99073.63;;;4.66;90.21
31717;BME280;18301;51.076;17.046;2024-02-26T06:18:33;99082.16;;;4.71;90.36
31717;BME280;18301;51.076;17.046;2024-02-26T06:23:34;99082.47;;;4.79;90.91
31717;BME280;18301;51.076;17.046;2024-02-26T06:28:36;99080.88;;;4.90;91.33
31717;BME280;18301;51.076;17.046;2024-02-26T06:33:42;99072.69;;;5.04;91.65
31717;BME280;18301;51.076;17.046;2024-02-26T06:38:44;99079.31;;;5.11;91.55
31717;BME280;18301;51.076;17.046;2024-02-26T06:43:45;99072.44;;;5.20;92.19
31717;BME280;18301;51.076;17.046;2024-02-26T06:48:50;99093.38;;;5.26;92.06
31717;BME280;18301;51.076;17.046;2024-02-26T06:53:56;99090.59;;;5.27;92.75
31717;BME280;18301;51.076;17.046;2024-02-26T06:58:57;99089.94;;;5.37;92.67
31717;BME280;18301;51.076;17.046;2024-02-26T07:03:59;99080.78;;;5.52;93.17
31717;BME280;18301;51.076;17.046;2024-02-26T07:09:02;99087.91;;;5.64;93.41
31717;BME280;18301;51.076;17.046;2024-02-26T07:14:04;99082.25;;;5.80;93.43
31717;BME280;18301;51.076;17.046;2024-02-26T07:19:05;99086.50;;;5.83;93.95
31717;BME280;18301;51.076;17.046;2024-02-26T07:24:08;99091.22;;;6.03;93.97
31717;BME280;18301;51.076;17.046;2024-02-26T07:29:10;99082.25;;;6.15;94.16
31717;BME280;18301;51.076;17.046;2024-02-26T07:34:11;99090.47;;;6.36;93.98
31717;BME280;18301;51.076;17.046;2024-02-26T07:39:13;99090.38;;;6.49;93.68
31717;BME280;18301;51.076;17.046;2024-02-26T07:44:15;99092.13;;;6.73;94.13
31717;BME280;18301;51.076;17.046;2024-02-26T07:49:17;99093.59;;;6.88;93.97
31717;BME280;18301;51.076;17.046;2024-02-26T07:54:18;99096.25;;;7.10;94.02
31717;BME280;18301;51.076;17.046;2024-02-26T07:59:21;99102.44;;;7.33;93.80
31717;BME280;18301;51.076;17.046;2024-02-26T08:04:22;99093.09;;;7.60;93.17
31717;BME280;18301;51.076;17.046;2024-02-26T08:09:24;99099.28;;;7.83;92.66
31717;BME280;18301;51.076;17.046;2024-02-26T08:14:26;99099.16;;;8.05;92.25
31717;BME280;18301;51.076;17.046;2024-02-26T08:19:28;99087.78;;;8.34;91.36
31717;BME280;18301;51.076;17.046;2024-02-26T08:24:29;99104.97;;;8.64;91.84
31717;BME280;18301;51.076;17.046;2024-02-26T08:29:31;99097.97;;;9.03;89.21
31717;BME280;18301;51.076;17.046;2024-02-26T08:34:33;99101.31;;;9.36;88.54
31717;BME280;18301;51.076;17.046;2024-02-26T08:39:35;99102.91;;;9.48;84.76
31717;BME280;18301;51.076;17.046;2024-02-26T08:44:36;99093.75;;;9.70;84.57
31717;BME280;18301;51.076;17.046;2024-02-26T08:49:42;99086.13;;;9.95;84.63
31717;BME280;18301;51.076;17.046;2024-02-26T08:54:45;99087.69;;;10.17;83.65
31717;BME280;18301;51.076;17.046;2024-02-26T08:59:47;99089.25;;;10.39;83.68
31717;BME280;18301;51.076;17.046;2024-02-26T09:04:48;99087.22;;;10.60;82.16
31717;BME280;18301;51.076;17.046;2024-02-26T09:09:52;99090.31;;;10.65;79.95
31717;BME280;18301;51.076;17.046;2024-02-26T09:14:54;99091.66;;;10.89;77.67
31717;BME280;18301;51.076;17.046;2024-02-26T09:19:57;99087.78;;;11.01;78.02
31717;BME280;18301;51.076;17.046;2024-02-26T09:24:59;99082.28;;;11.20;78.50
31717;BME280;18301;51.076;17.046;2024-02-26T09:30:01;99090.81;;;11.25;76.24
31717;BME280;18301;51.076;17.046;2024-02-26T09:35:03;99094.91;;;11.29;76.42
31717;BME280;18301;51.076;17.046;2024-02-26T09:40:05;99096.41;;;11.42;77.06
31717;BME280;18301;51.076;17.046;2024-02-26T09:45:10;99098.25;;;11.41;76.47
31717;BME280;18301;51.076;17.046;2024-02-26T09:50:14;99097.00;;;11.63;75.42
31717;BME280;18301;51.076;17.046;2024-02-26T09:55:19;99098.69;;;11.92;75.19
31717;BME280;18301;51.076;17.046;2024-02-26T10:00:22;99100.38;;;11.93;74.55
31717;BME280;18301;51.076;17.046;2024-02-26T10:05:24;99105.63;;;11.94;73.46
31717;BME280;18301;51.076;17.046;2024-02-26T10:10:28;99103.25;;;12.09;75.59
31717;BME280;18301;51.076;17.046;2024-02-26T10:15:30;99106.34;;;12.58;73.98
31717;BME280;18301;51.076;17.046;2024-02-26T10:20:32;99113.53;;;12.67;70.03
31717;BME280;18301;51.076;17.046;2024-02-26T10:25:34;99116.81;;;12.53;69.86
31717;BME280;18301;51.076;17.046;2024-02-26T10:30:36;99112.97;;;12.38;70.29
31717;BME280;18301;51.076;17.046;2024-02-26T10:35:38;99113.63;;;12.58;71.33
31717;BME280;18301;51.076;17.046;2024-02-26T10:40:42;99116.50;;;12.82;70.21
31717;BME280;18301;51.076;17.046;2024-02-26T10:45:43;99115.88;;;12.88;69.31
31717;BME280;18301;51.076;17.046;2024-02-26T10:50:47;99116.06;;;12.87;69.54
31717;BME280;18301;51.076;17.046;2024-02-26T10:56:02;99107.31;;;13.01;69.08
31717;BME280;18301;51.076;17.046;2024-02-26T11:01:05;99097.19;;;13.03;68.77
31717;BME280;18301;51.076;17.046;2024-02-26T11:06:08;99094.09;;;12.98;68.65
31717;BME280;18301;51.076;17.046;2024-02-26T11:11:12;99095.19;;;13.05;69.37
31717;BME280;18301;51.076;17.046;2024-02-26T11:16:23;99076.94;;;13.16;67.16
31717;BME280;18301;51.076;17.046;2024-02-26T11:21:25;99079.03;;;13.30;67.52
31717;BME280;18301;51.076;17.046;2024-02-26T11:26:47;99076.34;;;13.30;68.39
31717;BME280;18301;51.076;17.046;2024-02-26T11:31:52;99068.44;;;13.37;68.28
31717;BME280;18301;51.076;17.046;2024-02-26T11:36:55;99060.00;;;13.56;66.55
31717;BME280;18301;51.076;17.046;2024-02-26T11:42:05;99060.88;;;13.65;65.25
31717;BME280;18301;51.076;17.046;2024-02-26T11:47:33;99067.31;;;13.64;65.75
31717;BME280;18301;51.076;17.046;2024-02-26T11:52:36;99066.97;;;13.67;64.81
31717;BME280;18301;51.076;17.046;2024-02-26T11:57:39;99057.78;;;13.51;65.16
31717;BME280;18301;51.076;17.046;2024-02-26T12:02:55;99063.53;;;13.40;63.49
31717;BME280;18301;51.076;17.046;2024-02-26T12:08:07;99060.50;;;13.43;64.95
31717;BME280;18301;51.076;17.046;2024-02-26T12:13:12;99059.50;;;13.52;62.31
31717;BME280;18301;51.076;17.046;2024-02-26T12:18:20;99048.00;;;13.58;63.79
31717;BME280;18301;51.076;17.046;2024-02-26T12:23:23;99062.25;;;13.69;63.79
31717;BME280;18301;51.076;17.046;2024-02-26T12:28:28;99051.09;;;13.96;62.98
31717;BME280;18301;51.076;17.046;2024-02-26T12:33:30;99046.19;;;14.00;62.41
31717;BME280;18301;51.076;17.046;2024-02-26T12:38:32;99042.63;;;14.16;63.36
31717;BME280;18301;51.076;17.046;2024-02-26T12:43:35;99060.25;;;13.95;62.08
31717;BME280;18301;51.076;17.046;2024-02-26T12:48:37;99058.03;;;13.91;63.44
31717;BME280;18301;51.076;17.046;2024-02-26T12:53:39;99052.44;;;13.84;63.64
31717;BME280;18301;51.076;17.046;2024-02-26T12:58:41;99058.19;;;13.81;62.81
31717;BME280;18301;51.076;17.046;2024-02-26T13:03:44;99048.03;;;13.75;63.74
31717;BME280;18301;51.076;17.046;2024-02-26T13:08:46;99057.88;;;14.00;64.00
31717;BME280;18301;51.076;17.046;2024-02-26T13:13:48;99060.44;;;14.02;64.29
31717;BME280;18301;51.076;17.046;2024-02-26T13:18:51;99050.09;;;14.30;64.01
31717;BME280;18301;51.076;17.046;2024-02-26T13:23:53;99058.94;;;14.32;64.28
31717;BME280;18301;51.076;17.046;2024-02-26T13:29:02;99058.91;;;14.08;63.73
31717;BME280;18301;51.076;17.046;2024-02-26T13:34:07;99063.50;;;14.07;63.03
31717;BME280;18301;51.076;17.046;2024-02-26T13:39:08;99076.88;;;13.92;63.69
31717;BME280;18301;51.076;17.046;2024-02-26T13:44:14;99064.31;;;13.91;63.84
31717;BME280;18301;51.076;17.046;2024-02-26T13:49:16;99064.78;;;13.78;63.73
31717;BME280;18301;51.076;17.046;2024-02-26T13:54:18;99061.28;;;13.86;65.06
31717;BME280;18301;51.076;17.046;2024-02-26T13:59:20;99062.28;;;13.93;64.00
31717;BME280;18301;51.076;17.046;2024-02-26T14:04:21;99068.88;;;13.91;63.95
31717;BME280;18301;51.076;17.046;2024-02-26T14:09:23;99068.69;;;13.76;63.00
31717;BME280;18301;51.076;17.046;2024-02-26T14:14:36;99071.06;;;13.71;64.51
31717;BME280;18301;51.076;17.046;2024-02-26T14:19:40;99060.00;;;13.56;64.56
31717;BME280;18301;51.076;17.046;2024-02-26T14:24:45;99066.78;;;13.60;65.25
31717;BME280;18301;51.076;17.046;2024-02-26T14:29:48;99060.50;;;13.51;65.42
31717;BME280;18301;51.076;17.046;2024-02-26T14:34:50;99065.25;;;13.57;64.82
31717;BME280;18301;51.076;17.046;2024-02-26T14:39:51;99065.41;;;13.48;65.43
31717;BME280;18301;51.076;17.046;2024-02-26T14:44:54;99065.91;;;13.43;65.12
31717;BME280;18301;51.076;17.046;2024-02-26T14:49:56;99062.50;;;13.41;65.57
31717;BME280;18301;51.076;17.046;2024-02-26T14:54:58;99060.50;;;13.51;64.58
31717;BME280;18301;51.076;17.046;2024-02-26T14:59:59;99069.59;;;13.42;65.52
31717;BME280;18301;51.076;17.046;2024-02-26T15:05:01;99073.66;;;13.38;65.95
31717;BME280;18301;51.076;17.046;2024-02-26T15:10:04;99071.00;;;13.46;65.71
31717;BME280;18301;51.076;17.046;2024-02-26T15:15:06;99065.25;;;13.49;65.50
31717;BME280;18301;51.076;17.046;2024-02-26T15:20:09;99075.00;;;13.34;65.62
31717;BME280;18301;51.076;17.046;2024-02-26T15:25:12;99073.16;;;13.34;66.11
31717;BME280;18301;51.076;17.046;2024-02-26T15:30:16;99086.50;;;13.28;66.71
31717;BME280;18301;51.076;17.046;2024-02-26T15:35:18;99081.41;;;13.25;66.77
31717;BME280;18301;51.076;17.046;2024-02-26T15:40:20;99089.22;;;13.28;66.88
31717;BME280;18301;51.076;17.046;2024-02-26T15:45:23;99094.78;;;13.26;67.14
31717;BME280;18301;51.076;17.046;2024-02-26T15:50:26;99099.81;;;13.21;67.52
31717;BME280;18301;51.076;17.046;2024-02-26T15:55:28;99104.88;;;13.16;67.71
31717;BME280;18301;51.076;17.046;2024-02-26T16:00:31;99108.75;;;13.13;67.98
31717;BME280;18301;51.076;17.046;2024-02-26T16:05:32;99109.06;;;13.10;68.16
31717;BME280;18301;51.076;17.046;2024-02-26T16:10:34;99110.88;;;13.02;68.54
31717;BME280;18301;51.076;17.046;2024-02-26T16:15:36;99114.78;;;12.99;68.71
31717;BME280;18301;51.076;17.046;2024-02-26T16:20:38;99127.22;;;12.92;69.09
31717;BME280;18301;51.076;17.046;2024-02-26T16:25:40;99132.66;;;12.92;69.38
31717;BME280;18301;51.076;17.046;2024-02-26T16:30:41;99131.59;;;12.85;69.71
31717;BME280;18301;51.076;17.046;2024-02-26T16:35:44;99140.72;;;12.84;69.94
31717;BME280;18301;51.076;17.046;2024-02-26T16:40:46;99137.63;;;12.79;70.42
31717;BME280;18301;51.076;17.046;2024-02-26T16:45:47;99146.47;;;12.81;70.43
31717;BME280;18301;51.076;17.046;2024-02-26T16:50:49;99142.53;;;12.75;70.91
31717;BME280;18301;51.076;17.046;2024-02-26T16:55:51;99152.25;;;12.68;71.65
31717;BME280;18301;51.076;17.046;2024-02-26T17:00:53;99162.88;;;12.61;72.08
31717;BME280;18301;51.076;17.046;2024-02-26T17:05:55;99157.09;;;12.56;71.97
31717;BME280;18301;51.076;17.046;2024-02-26T17:10:56;99166.41;;;12.62;72.12
31717;BME280;18301;51.076;17.046;2024-02-26T17:15:58;99175.16;;;12.56;72.36
31717;BME280;18301;51.076;17.046;2024-02-26T17:21:00;99175.47;;;12.53;72.43
31717;BME280;18301;51.076;17.046;2024-02-26T17:26:02;99185.75;;;12.49;73.07
31717;BME280;18301;51.076;17.046;2024-02-26T17:31:05;99187.78;;;12.47;73.13
31717;BME280;18301;51.076;17.046;2024-02-26T17:36:07;99198.31;;;12.50;73.21
31717;BME280;18301;51.076;17.046;2024-02-26T17:41:11;99196.91;;;12.46;73.19
31717;BME280;18301;51.076;17.046;2024-02-26T17:46:13;99208.88;;;12.43;73.31
31717;BME280;18301;51.076;17.046;2024-02-26T17:51:15;99205.25;;;12.35;73.88
31717;BME280;18301;51.076;17.046;2024-02-26T17:56:17;99214.00;;;12.29;74.13
31717;BME280;18301;51.076;17.046;2024-02-26T18:01:19;99209.03;;;12.24;74.38
31717;BME280;18301;51.076;17.046;2024-02-26T18:06:21;99221.31;;;12.18;74.82
31717;BME280;18301;51.076;17.046;2024-02-26T18:11:23;99217.91;;;12.16;75.15
31717;BME280;18301;51.076;17.046;2024-02-26T18:16:25;99227.31;;;12.12;75.45
31717;BME280;18301;51.076;17.046;2024-02-26T18:21:27;99229.88;;;12.14;75.47
31717;BME280;18301;51.076;17.046;2024-02-26T18:26:29;99227.84;;;12.16;75.30
31717;BME280;18301;51.076;17.046;2024-02-26T18:31:30;99220.06;;;12.13;75.27
31717;BME280;18301;51.076;17.046;2024-02-26T18:36:32;99234.75;;;12.10;75.97
31717;BME280;18301;51.076;17.046;2024-02-26T18:41:34;99235.72;;;12.09;76.18
31717;BME280;18301;51.076;17.046;2024-02-26T18:46:43;99236.34;;;12.03;76.50
31717;BME280;18301;51.076;17.046;2024-02-26T18:51:44;99242.75;;;12.02;76.82
31717;BME280;18301;51.076;17.046;2024-02-26T18:56:46;99242.22;;;11.98;77.26
31717;BME280;18301;51.076;17.046;2024-02-26T19:01:48;99252.47;;;11.95;77.39
31717;BME280;18301;51.076;17.046;2024-02-26T19:06:50;99258.50;;;11.89;78.05
31717;BME280;18301;51.076;17.046;2024-02-26T19:11:52;99262.16;;;11.88;78.35
31717;BME280;18301;51.076;17.046;2024-02-26T19:16:56;99260.19;;;11.90;78.48
31717;BME280;18301;51.076;17.046;2024-02-26T19:21:58;99267.16;;;11.92;78.63
31717;BME280;18301;51.076;17.046;2024-02-26T19:27:00;99279.53;;;11.95;78.43
31717;BME280;18301;51.076;17.046;2024-02-26T19:32:01;99274.09;;;11.95;78.06
31717;BME280;18301;51.076;17.046;2024-02-26T19:37:05;99272.97;;;11.88;77.80
31717;BME280;18301;51.076;17.046;2024-02-26T19:42:06;99269.44;;;11.87;77.83
31717;BME280;18301;51.076;17.046;2024-02-26T19:47:08;99280.41;;;11.86;77.98
31717;BME280;18301;51.076;17.046;2024-02-26T19:52:10;99280.41;;;11.86;78.03
31717;BME280;18301;51.076;17.046;2024-02-26T19:57:12;99275.28;;;11.83;78.56
31717;BME280;18301;51.076;17.046;2024-02-26T20:02:14;99282.97;;;11.78;78.76
31717;BME280;18301;51.076;17.046;2024-02-26T20:07:16;99294.63;;;11.78;79.19
31717;BME280;18301;51.076;17.046;2024-02-26T20:12:18;99294.06;;;11.74;79.48
31717;BME280;18301;51.076;17.046;2024-02-26T20:17:20;99288.97;;;11.71;79.65
31717;BME280;18301;51.076;17.046;2024-02-26T20:22:24;99291.09;;;11.68;80.27
31717;BME280;18301;51.076;17.046;2024-02-26T20:27:26;99299.81;;;11.62;80.32
31717;BME280;18301;51.076;17.046;2024-02-26T20:32:27;99305.22;;;11.62;80.63
31717;BME280;18301;51.076;17.046;2024-02-26T20:37:30;99307.66;;;11.55;80.73
31717;BME280;18301;51.076;17.046;2024-02-26T20:42:32;99310.22;;;11.47;81.03
31717;BME280;18301;51.076;17.046;2024-02-26T20:47:34;99311.50;;;11.43;80.93
31717;BME280;18301;51.076;17.046;2024-02-26T20:52:35;99314.09;;;11.35;80.24
31717;BME280;18301;51.076;17.046;2024-02-26T20:57:37;99330.88;;;11.28;79.79
31717;BME280;18301;51.076;17.046;2024-02-26T21:02:39;99326.75;;;11.24;79.75
31717;BME280;18301;51.076;17.046;2024-02-26T21:07:41;99341.81;;;11.17;79.71
31717;BME280;18301;51.076;17.046;2024-02-26T21:12:48;99345.34;;;11.08;79.71
31717;BME280;18301;51.076;17.046;2024-02-26T21:17:51;99362.13;;;11.02;80.15
31717;BME280;18301;51.076;17.046;2024-02-26T21:22:53;99368.25;;;10.85;80.02
31717;BME280;18301;51.076;17.046;2024-02-26T21:27:55;99365.66;;;10.73;79.92
31717;BME280;18301;51.076;17.046;2024-02-26T21:32:57;99370.19;;;10.53;80.49
31717;BME280;18301;51.076;17.046;2024-02-26T21:37:58;99373.41;;;10.38;81.23
31717;BME280;18301;51.076;17.046;2024-02-26T21:43:00;99373.06;;;10.31;81.47
31717;BME280;18301;51.076;17.046;2024-02-26T21:48:02;99368.81;;;10.28;81.53
31717;BME280;18301;51.076;17.046;2024-02-26T21:53:04;99385.25;;;10.25;81.90
31717;BME280;18301;51.076;17.046;2024-02-26T21:58:05;99391.88;;;10.21;82.47
31717;BME280;18301;51.076;17.046;2024-02-26T22:03:07;99390.13;;;10.10;82.50
31717;BME280;18301;51.076;17.046;2024-02-26T22:08:09;99392.00;;;10.10;82.76
31717;BME280;18301;51.076;17.046;2024-02-26T22:13:10;99391.09;;;10.09;82.98
31717;BME280;18301;51.076;17.046;2024-02-26T22:18:12;99396.78;;;10.06;83.08
31717;BME280;18301;51.076;17.046;2024-02-26T22:23:14;99396.19;;;10.03;83.55
31717;BME280;18301;51.076;17.046;2024-02-26T22:28:16;99412.06;;;9.96;83.55
31717;BME280;18301;51.076;17.046;2024-02-26T22:33:17;99414.28;;;9.91;84.43
31717;BME280;18301;51.076;17.046;2024-02-26T22:38:20;99420.41;;;9.93;84.85
31717;BME280;18301;51.076;17.046;2024-02-26T22:43:22;99427.91;;;9.89;85.01
31717;BME280;18301;51.076;17.046;2024-02-26T22:48:24;99435.00;;;9.90;85.08
31717;BME280;18301;51.076;17.046;2024-02-26T22:53:26;99426.13;;;9.79;85.80
31717;BME280;18301;51.076;17.046;2024-02-26T22:58:27;99435.78;;;9.81;85.39
31717;BME280;18301;51.076;17.046;2024-02-26T23:03:29;99430.91;;;9.75;85.86
31717;BME280;18301;51.076;17.046;2024-02-26T23:08:31;99442.22;;;9.69;85.68
31717;BME280;18301;51.076;17.046;2024-02-26T23:13:33;99450.63;;;9.55;86.71
31717;BME280;18301;51.076;17.046;2024-02-26T23:18:35;99445.53;;;9.52;87.13
31717;BME280;18301;51.076;17.046;2024-02-26T23:23:38;99448.31;;;9.50;87.11
31717;BME280;18301;51.076;17.046;2024-02-26T23:28:40;99451.69;;;9.42;86.81
31717;BME280;18301;51.076;17.046;2024-02-26T23:33:42;99458.69;;;9.34;87.23
31717;BME280;18301;51.076;17.046;2024-02-26T23:38:43;99462.00;;;9.26;87.22
31717;BME280;18301;51.076;17.046;2024-02-26T23:43:45;99471.59;;;9.19;87.33
31717;BME280;18301;51.076;17.046;2024-02-26T23:48:48;99466.03;;;8.99;87.28
31717;BME280;18301;51.076;17.046;2024-02-26T23:53:49;99476.53;;;8.91;87.69
31717;BME280;18301;51.076;17.046;2024-02-26T23:58:52;99481.69;;;8.83;87.91
